CheckWX is a tool to help pilots better visualize weather data.  It is not intended as a substitute for an official pre-flight weather briefing.

17:28:44 UTC

MHLC TAF
Goloson International Airport
La Ceiba, Honduras
TAF MHLC 241025Z 2412/2512 00000KT 9999 FEW026 TX30/2421Z TN19/2512Z BECMG 2416/2418 03008KT BECMG 2503/2505 00000KT

Mar-24@
12:00 UTC

Mar-24 @ 12:00 UTC

Mar-24@
16:00 UTC

Mar-24 @ 16:00 UTC

TAF MHLC 241025Z 2412/2512 00000KT 9999 FEW026 TX30/2421Z TN19/2512Z

Expired

Cloud Levels
  • Few at 2,600' AGL

Mar-24@
16:00 UTC

Mar-24 @ 16:00 UTC

Mar-25@
03:00 UTC

Mar-25 @ 03:00 UTC

BECMG 2416/2418 03008KT

Becoming

Becoming Conditions expected by Sun, Mar 24, 2019 @ 18:00 UTC

Wind
  • 030° at 8 KTS
Cloud Levels
  • Few at 2,600' AGL

Mar-25@
03:00 UTC

Mar-25 @ 03:00 UTC

Mar-25@
12:00 UTC

Mar-25 @ 12:00 UTC

BECMG 2503/2505 00000KT

Becoming

Becoming Conditions expected by Mon, Mar 25, 2019 @ 05:00 UTC

Cloud Levels
  • Few at 2,600' AGL